Time;durP1;ratioP1;P1;durP2;ratioP2;P2;SDS_P1;SDS_P2;PMS_P1;PMS_P2;Temp;Humidity;BMP_temperature;BMP_pressure;BME280_temperature;BME280_humidity;BME280_pressure;Samples;Min_cycle;Max_cycle;Signal;HPM_P1;HPM_P2
2023/03/01 01:23:13;;;;;;;405.30;233.80;;;;;;;-3.97;68.87;101814.27;113538;1232;23689;-74
2023/03/01 01:31:24;;;;;;;414.80;241.00;;;;;;;-3.96;68.82;101811.75;113633;1233;21949;-75
2023/03/01 01:33:53;;;;;;;398.50;244.60;;;;;;;-3.94;68.72;101815.27;113393;1232;21954;-73
2023/03/01 01:36:21;;;;;;;395.10;241.70;;;;;;;-3.90;68.72;101814.76;113328;1233;22993;-74
2023/03/01 01:38:49;;;;;;;400.70;245.30;;;;;;;-3.86;68.56;101808.27;113248;1232;22712;-74
2023/03/01 01:41:17;;;;;;;412.20;246.50;;;;;;;-3.83;68.50;101802.48;113437;1232;21950;-73
2023/03/01 01:44:08;;;;;;;397.80;247.70;;;;;;;-3.81;68.50;101799.35;113446;1233;21963;-73
2023/03/01 01:46:44;;;;;;;393.20;242.20;;;;;;;-3.78;68.63;101800.64;113584;1233;21951;-73
2023/03/01 01:49:27;;;;;;;386.30;230.10;;;;;;;-3.77;68.49;101803.76;113451;1233;22054;-73
2023/03/01 01:52:05;;;;;;;361.90;223.70;;;;;;;-3.76;68.52;101806.70;113496;1233;21948;-71
2023/03/01 01:54:54;;;;;;;367.20;223.50;;;;;;;-3.74;68.63;101805.23;113413;1233;22392;-73
2023/03/01 01:57:27;;;;;;;376.00;228.00;;;;;;;-3.74;68.43;101807.45;113406;1233;23060;-73
2023/03/01 02:00:04;;;;;;;391.90;238.20;;;;;;;-3.75;68.38;101804.53;113394;1233;21950;-73
2023/03/01 02:04:22;;;;;;;383.90;237.80;;;;;;;-3.75;68.45;101798.38;113450;1233;21951;-74
2023/03/01 02:07:11;;;;;;;367.40;226.30;;;;;;;-3.78;68.72;101795.88;113428;1233;21936;-74
2023/03/01 02:09:40;;;;;;;351.20;216.90;;;;;;;-3.81;68.69;101794.06;113399;1233;23001;-73
2023/03/01 02:12:08;;;;;;;350.10;215.30;;;;;;;-3.80;68.72;101795.44;113323;1233;24092;-73
2023/03/01 02:14:36;;;;;;;351.20;217.60;;;;;;;-3.79;68.72;101790.07;113326;1233;21944;-73
2023/03/01 02:17:04;;;;;;;361.50;223.50;;;;;;;-3.77;68.77;101786.21;113584;1232;21943;-73
2023/03/01 02:20:06;;;;;;;350.80;209.80;;;;;;;-3.77;68.59;101782.48;113408;1233;21933;-74
2023/03/01 02:22:38;;;;;;;330.30;203.30;;;;;;;-3.82;68.63;101782.77;113428;1233;22735;-73
2023/03/01 02:25:27;;;;;;;343.50;210.00;;;;;;;-3.83;68.73;101787.30;113384;1233;21989;-73
2023/03/01 02:28:14;;;;;;;343.30;210.90;;;;;;;-3.83;68.68;101790.22;113529;1233;21953;-73
2023/03/01 02:33:35;;;;;;;343.10;212.10;;;;;;;-3.86;68.61;101793.13;113434;1233;23798;-74
2023/03/01 02:36:13;;;;;;;340.60;210.60;;;;;;;-3.88;68.58;101795.61;113351;1233;22009;-73
2023/03/01 02:38:42;;;;;;;353.80;213.90;;;;;;;-3.89;68.63;101798.62;113366;1233;22459;-75
2023/03/01 02:41:14;;;;;;;334.60;210.00;;;;;;;-3.90;68.55;101796.05;113425;1233;22025;-74
2023/03/01 02:43:43;;;;;;;336.50;207.00;;;;;;;-3.91;68.59;101794.99;113613;1233;21984;-73
2023/03/01 02:46:22;;;;;;;342.30;211.40;;;;;;;-3.92;68.60;101793.77;113166;1233;21944;-73
2023/03/01 02:48:58;;;;;;;343.20;212.80;;;;;;;-3.92;68.73;101790.31;113371;1233;22948;-73
2023/03/01 02:51:45;;;;;;;348.30;212.70;;;;;;;-3.93;68.60;101790.45;113642;1233;21954;-74
2023/03/01 02:54:36;;;;;;;343.40;211.20;;;;;;;-3.95;68.79;101792.10;113339;1233;21943;-73
2023/03/01 02:57:05;;;;;;;337.70;205.20;;;;;;;-3.94;68.92;101792.11;113324;1233;21952;-72
2023/03/01 02:59:39;;;;;;;337.70;207.80;;;;;;;-3.94;68.81;101793.12;113233;1233;22408;-73
2023/03/01 03:02:20;;;;;;;340.30;210.00;;;;;;;-3.95;68.77;101785.27;111920;1233;1862653;-72
2023/03/01 03:04:48;;;;;;;341.30;211.00;;;;;;;-3.96;68.80;101779.61;113603;1233;22053;-74
2023/03/01 03:07:16;;;;;;;343.30;213.20;;;;;;;-3.97;68.82;101776.02;113186;1233;21964;-73
2023/03/01 03:09:44;;;;;;;344.20;214.70;;;;;;;-3.96;68.97;101776.20;113392;1233;21959;-73
2023/03/01 03:12:13;;;;;;;346.90;216.40;;;;;;;-3.94;69.03;101775.61;113529;1233;21951;-75
2023/03/01 03:14:41;;;;;;;337.10;212.80;;;;;;;-3.91;69.13;101772.86;113364;1233;22008;-74
2023/03/01 03:17:09;;;;;;;340.70;217.00;;;;;;;-3.91;69.06;101768.96;113393;1233;21948;-74
2023/03/01 03:19:37;;;;;;;338.30;212.10;;;;;;;-3.96;68.89;101765.51;113365;1233;23051;-73
2023/03/01 03:22:04;;;;;;;338.80;211.00;;;;;;;-4.01;68.73;101758.66;113429;1230;22013;-74
2023/03/01 03:24:37;;;;;;;343.70;212.10;;;;;;;-4.04;68.80;101755.61;113572;1233;22411;-75
2023/03/01 03:27:08;;;;;;;348.90;209.30;;;;;;;-4.08;68.89;101750.69;113484;1233;21930;-74
2023/03/01 03:29:36;;;;;;;325.60;208.10;;;;;;;-4.06;69.10;101746.16;113381;1233;21983;-74
2023/03/01 03:32:04;;;;;;;328.90;209.00;;;;;;;-4.06;69.02;101741.26;113379;1233;21933;-74
2023/03/01 03:34:31;;;;;;;330.20;202.90;;;;;;;-4.05;69.13;101742.46;113365;1233;23014;-74
2023/03/01 03:36:59;;;;;;;333.90;206.90;;;;;;;-4.05;69.24;101749.13;113311;1233;22005;-74
2023/03/01 03:39:34;;;;;;;328.50;204.50;;;;;;;-4.05;69.16;101750.48;113399;1233;23014;-74
2023/03/01 03:42:02;;;;;;;329.10;201.60;;;;;;;-4.07;69.09;101746.13;113373;1229;21941;-74
2023/03/01 03:44:30;;;;;;;331.80;209.70;;;;;;;-4.09;69.09;101744.84;113400;1233;23682;-74
2023/03/01 03:46:57;;;;;;;343.30;213.40;;;;;;;-4.13;68.93;101743.83;113371;1233;22458;-75
2023/03/01 03:49:25;;;;;;;331.60;208.70;;;;;;;-4.20;68.87;101744.05;113354;1233;21938;-75
2023/03/01 03:51:53;;;;;;;326.40;207.40;;;;;;;-4.26;68.95;101742.73;113573;1233;22177;-74
2023/03/01 03:54:20;;;;;;;325.70;205.60;;;;;;;-4.31;68.99;101732.13;113367;1233;23754;-74
2023/03/01 03:56:48;;;;;;;304.30;192.10;;;;;;;-4.40;68.94;101730.41;113387;1233;23082;-74
2023/03/01 03:59:16;;;;;;;315.50;199.70;;;;;;;-4.48;69.09;101733.10;113578;1232;21970;-73
2023/03/01 04:01:45;;;;;;;339.80;216.90;;;;;;;-4.49;69.31;101732.36;113401;1233;21985;-73
2023/03/01 04:04:13;;;;;;;351.10;231.70;;;;;;;-4.49;69.33;101730.02;113583;1232;22053;-72
2023/03/01 04:06:40;;;;;;;333.00;209.60;;;;;;;-4.47;69.48;101733.13;113526;1233;23008;-73
2023/03/01 04:09:08;;;;;;;320.90;204.20;;;;;;;-4.46;69.51;101740.32;113447;1233;23519;-73
2023/03/01 04:11:36;;;;;;;321.30;197.60;;;;;;;-4.46;69.54;101745.58;113379;1233;22004;-73
2023/03/01 04:14:04;;;;;;;314.50;198.40;;;;;;;-4.45;69.56;101742.75;113436;1233;22057;-73
2023/03/01 04:16:32;;;;;;;325.40;198.80;;;;;;;-4.44;69.54;101741.94;113442;1233;23730;-73
2023/03/01 04:19:00;;;;;;;318.20;198.60;;;;;;;-4.42;69.57;101742.02;113573;1233;21948;-73
2023/03/01 04:21:28;;;;;;;324.80;200.70;;;;;;;-4.43;69.62;101741.14;113412;1233;23028;-73
2023/03/01 04:23:56;;;;;;;319.00;199.90;;;;;;;-4.43;69.56;101744.55;113560;1233;22705;-73
2023/03/01 04:26:24;;;;;;;331.00;200.20;;;;;;;-4.43;69.48;101743.83;113373;1233;21957;-73
2023/03/01 04:28:52;;;;;;;324.70;201.20;;;;;;;-4.45;69.47;101748.04;113541;1233;23727;-74
2023/03/01 04:31:21;;;;;;;321.90;200.80;;;;;;;-4.47;69.40;101746.22;113414;1233;23578;-74
2023/03/01 04:33:55;;;;;;;321.70;202.20;;;;;;;-4.48;69.51;101747.38;113341;1233;22275;-74
2023/03/01 04:36:26;;;;;;;328.50;202.70;;;;;;;-4.48;69.50;101751.10;113677;1231;22850;-74
2023/03/01 04:38:55;;;;;;;326.30;206.40;;;;;;;-4.48;69.51;101748.88;113469;1233;23614;-74
2023/03/01 04:41:24;;;;;;;313.10;199.10;;;;;;;-4.47;69.67;101743.15;113582;1233;21979;-74
2023/03/01 04:43:52;;;;;;;322.40;200.90;;;;;;;-4.45;69.73;101744.62;113510;1233;23626;-73
2023/03/01 04:46:21;;;;;;;321.90;200.20;;;;;;;-4.44;69.66;101739.04;113393;1233;22694;-73
2023/03/01 04:48:49;;;;;;;293.00;178.40;;;;;;;-4.47;69.62;101738.08;113249;1233;23144;-74
2023/03/01 04:51:18;;;;;;;308.80;198.40;;;;;;;-4.50;69.65;101740.14;113502;1233;24326;-75
2023/03/01 04:53:46;;;;;;;336.50;212.90;;;;;;;-4.54;69.62;101736.54;113442;1233;21935;-74
2023/03/01 04:56:15;;;;;;;373.30;231.00;;;;;;;-4.54;69.85;101736.70;113392;1224;23030;-74
2023/03/01 04:58:44;;;;;;;478.70;268.70;;;;;;;-4.54;69.78;101743.05;113432;1233;21966;-74
2023/03/01 05:01:18;;;;;;;377.90;219.70;;;;;;;-4.53;69.78;101738.34;113388;1233;21950;-75
2023/03/01 05:03:50;;;;;;;316.50;195.70;;;;;;;-4.52;69.90;101739.86;113393;1233;21940;-75
2023/03/01 05:06:20;;;;;;;347.70;211.50;;;;;;;-4.52;69.87;101740.73;113229;1233;22821;-75
2023/03/01 05:08:48;;;;;;;341.20;202.10;;;;;;;-4.53;69.80;101733.20;113373;1232;23674;-74
2023/03/01 05:11:15;;;;;;;352.00;214.70;;;;;;;-4.51;69.97;101733.13;113383;1233;22400;-74
2023/03/01 05:13:43;;;;;;;333.50;200.50;;;;;;;-4.47;70.17;101737.39;113426;1233;22687;-73
2023/03/01 05:16:11;;;;;;;376.90;220.90;;;;;;;-4.43;70.16;101735.35;113425;1233;23587;-74
2023/03/01 05:18:40;;;;;;;348.60;202.50;;;;;;;-4.43;69.96;101734.52;113377;1226;23034;-74
2023/03/01 05:21:11;;;;;;;330.40;197.30;;;;;;;-4.43;69.91;101733.83;113231;1233;23008;-75
2023/03/01 05:23:39;;;;;;;320.70;188.90;;;;;;;-4.44;69.90;101728.00;113461;1233;22059;-73
2023/03/01 05:26:08;;;;;;;312.60;186.80;;;;;;;-4.45;69.97;101723.38;113409;1233;21990;-75
2023/03/01 05:28:49;;;;;;;312.60;191.00;;;;;;;-4.46;69.83;101723.14;113432;1233;21948;-78
2023/03/01 05:31:17;;;;;;;531.50;300.50;;;;;;;-4.47;69.87;101722.92;113438;1233;21988;-74
2023/03/01 05:33:45;;;;;;;441.80;250.40;;;;;;;-4.48;69.89;101723.39;113413;1232;21957;-73
2023/03/01 05:36:13;;;;;;;322.80;197.00;;;;;;;-4.47;69.96;101725.48;113453;1233;22065;-73
2023/03/01 05:38:40;;;;;;;308.00;190.30;;;;;;;-4.50;69.81;101727.89;113603;1232;22845;-72
2023/03/01 05:41:16;;;;;;;368.10;227.10;;;;;;;-4.55;69.81;101729.23;113463;1233;21970;-73
2023/03/01 05:43:44;;;;;;;407.20;243.50;;;;;;;-4.58;69.98;101726.70;113319;1232;21957;-73
2023/03/01 05:46:14;;;;;;;403.00;244.00;;;;;;;-4.59;70.10;101721.53;113423;1229;21968;-73
2023/03/01 05:48:42;;;;;;;360.20;214.30;;;;;;;-4.60;70.16;101719.45;113454;1232;22410;-74
2023/03/01 05:51:10;;;;;;;346.40;211.50;;;;;;;-4.60;70.28;101718.27;113618;1232;21942;-73
2023/03/01 05:53:37;;;;;;;449.30;268.30;;;;;;;-4.56;70.44;101723.05;113535;1233;23562;-73
2023/03/01 05:56:05;;;;;;;368.40;222.70;;;;;;;-4.51;70.59;101723.45;113409;1233;21994;-74
2023/03/01 05:58:34;;;;;;;309.90;189.00;;;;;;;-4.45;70.64;101725.23;113448;1233;21938;-73
2023/03/01 06:01:01;;;;;;;282.00;185.70;;;;;;;-4.41;70.69;101727.31;113389;1233;23696;-73
2023/03/01 06:03:29;;;;;;;422.00;232.50;;;;;;;-4.36;70.74;101726.66;113386;1232;23571;-74
2023/03/01 06:05:57;;;;;;;389.50;220.90;;;;;;;-4.33;70.71;101726.64;113543;1232;21958;-73
2023/03/01 06:08:26;;;;;;;339.40;199.80;;;;;;;-4.28;70.78;101729.59;113595;1232;24266;-72
2023/03/01 06:10:54;;;;;;;341.90;195.80;;;;;;;-4.21;70.88;101730.23;113361;1232;21976;-74
2023/03/01 06:13:23;;;;;;;318.00;192.00;;;;;;;-4.17;70.91;101730.92;113288;1233;22158;-73
2023/03/01 06:15:51;;;;;;;304.60;189.20;;;;;;;-4.10;70.98;101735.13;113356;1233;21947;-74
2023/03/01 06:18:19;;;;;;;304.00;189.60;;;;;;;-4.03;71.03;101733.23;113399;1232;21973;-74
2023/03/01 06:20:54;;;;;;;281.50;179.10;;;;;;;-3.99;70.90;101728.64;113395;1233;21982;-74
2023/03/01 06:23:23;;;;;;;285.00;181.20;;;;;;;-4.01;70.59;101731.95;113403;1233;21947;-73
2023/03/01 06:25:51;;;;;;;294.70;189.60;;;;;;;-4.02;70.58;101733.79;113422;1227;21966;-73
2023/03/01 06:28:19;;;;;;;278.10;183.80;;;;;;;-3.99;70.86;101731.04;113244;1233;23002;-73
2023/03/01 06:30:47;;;;;;;294.00;186.80;;;;;;;-3.96;71.00;101727.59;113421;1233;21950;-73
2023/03/01 06:33:15;;;;;;;293.50;188.20;;;;;;;-3.96;70.91;101726.06;113154;1233;21947;-73
2023/03/01 06:35:43;;;;;;;300.60;187.60;;;;;;;-3.94;71.05;101719.83;113362;1233;23699;-74
2023/03/01 06:38:11;;;;;;;297.10;189.10;;;;;;;-3.88;71.27;101721.81;113350;1232;21953;-74
2023/03/01 06:40:38;;;;;;;313.90;195.00;;;;;;;-3.84;71.11;101720.45;113305;1233;22989;-73
2023/03/01 06:43:07;;;;;;;306.30;193.00;;;;;;;-3.80;71.18;101716.54;113284;1233;22846;-74
2023/03/01 06:45:35;;;;;;;312.90;200.20;;;;;;;-3.72;71.31;101711.73;113392;1233;23793;-77
2023/03/01 06:48:07;;;;;;;317.70;200.00;;;;;;;-3.63;71.41;101709.06;113503;1233;22009;-77
2023/03/01 06:50:35;;;;;;;314.20;202.00;;;;;;;-3.53;71.60;101711.85;113314;1233;21933;-76
2023/03/01 06:53:04;;;;;;;333.90;210.00;;;;;;;-3.42;71.77;101722.35;113434;1233;22712;-76
2023/03/01 06:55:32;;;;;;;301.60;194.70;;;;;;;-3.30;71.80;101725.58;113378;1233;21951;-75
2023/03/01 06:58:02;;;;;;;311.60;197.60;;;;;;;-3.20;71.66;101723.45;113433;1233;23008;-75
2023/03/01 07:00:31;;;;;;;356.70;226.40;;;;;;;-3.11;71.56;101719.01;113311;1233;23091;-75
2023/03/01 07:03:01;;;;;;;409.20;283.20;;;;;;;-3.01;71.56;101716.33;113315;1233;23714;-76
2023/03/01 07:05:30;;;;;;;336.80;221.10;;;;;;;-2.91;71.53;101710.24;113412;1233;21962;-76
2023/03/01 07:07:57;;;;;;;313.40;205.80;;;;;;;-2.86;71.33;101700.05;113423;1233;22998;-76
2023/03/01 07:10:25;;;;;;;312.30;211.60;;;;;;;-2.80;71.42;101698.43;113407;1233;24348;-75
2023/03/01 07:12:58;;;;;;;348.30;219.20;;;;;;;-2.66;71.66;101706.94;113649;1232;24563;-76
2023/03/01 07:15:27;;;;;;;327.70;210.60;;;;;;;-2.50;71.72;101713.88;113477;1233;21960;-73
2023/03/01 07:17:56;;;;;;;380.10;273.40;;;;;;;-2.32;71.88;101719.45;113457;1233;22806;-74
2023/03/01 07:20:25;;;;;;;345.50;237.70;;;;;;;-2.17;71.83;101716.08;113358;1233;21944;-74
2023/03/01 07:22:54;;;;;;;316.90;208.50;;;;;;;-2.02;71.82;101718.86;113429;1229;21950;-77
2023/03/01 07:25:22;;;;;;;316.70;213.00;;;;;;;-1.84;71.71;101712.48;113380;1233;21950;-75
2023/03/01 07:27:52;;;;;;;316.80;209.80;;;;;;;-1.65;71.74;101709.70;113368;1233;21985;-76
2023/03/01 07:30:21;;;;;;;329.70;215.20;;;;;;;-1.45;71.71;101713.64;113593;1232;21924;-76
2023/03/01 07:32:49;;;;;;;312.60;207.20;;;;;;;-1.17;72.08;101717.42;113343;1232;23572;-77
2023/03/01 07:35:17;;;;;;;303.80;199.90;;;;;;;-0.89;72.16;101715.23;113356;1224;23031;-75
2023/03/01 07:37:45;;;;;;;305.70;203.40;;;;;;;-0.58;72.19;101713.43;113339;1233;23093;-76
2023/03/01 07:40:13;;;;;;;303.10;203.90;;;;;;;-0.23;72.19;101714.95;113352;1233;21984;-75
2023/03/01 07:42:41;;;;;;;298.90;205.10;;;;;;;0.18;72.37;101712.14;113269;1233;21953;-75
2023/03/01 07:45:09;;;;;;;313.40;212.80;;;;;;;0.69;72.73;101707.77;113301;1233;21967;-75
2023/03/01 07:47:37;;;;;;;317.70;213.70;;;;;;;1.25;72.74;101708.21;113319;1233;21937;-76
2023/03/01 07:50:06;;;;;;;317.70;211.80;;;;;;;1.77;72.44;101713.42;113551;1231;21942;-75
2023/03/01 07:52:33;;;;;;;306.20;212.80;;;;;;;2.29;71.99;101718.52;113378;1233;22013;-77
2023/03/01 07:55:01;;;;;;;298.40;202.70;;;;;;;2.77;71.41;101715.40;113491;1233;22001;-79
2023/03/01 07:57:29;;;;;;;298.10;204.80;;;;;;;3.19;70.20;101713.63;113450;1233;24049;-79
2023/03/01 07:59:57;;;;;;;285.30;196.80;;;;;;;3.57;68.88;101714.67;113444;1233;23114;-79
2023/03/01 08:02:24;;;;;;;286.50;192.50;;;;;;;3.91;67.77;101717.83;113404;1232;21952;-79
2023/03/01 08:04:52;;;;;;;260.10;183.30;;;;;;;4.21;66.08;101722.30;113372;1233;22394;-80
2023/03/01 08:07:20;;;;;;;189.40;136.80;;;;;;;4.41;64.83;101729.57;113581;1233;21964;-79
2023/03/01 08:09:47;;;;;;;151.20;114.30;;;;;;;4.64;63.65;101734.08;113524;1232;23649;-79
2023/03/01 08:12:16;;;;;;;138.60;105.20;;;;;;;4.96;63.27;101732.09;113355;1233;22407;-79
2023/03/01 08:14:44;;;;;;;123.60;98.30;;;;;;;5.25;62.14;101730.40;113558;1232;22992;-79
2023/03/01 08:17:15;;;;;;;123.20;93.10;;;;;;;5.54;61.54;101729.19;113507;1232;21912;-79
2023/03/01 08:19:44;;;;;;;103.50;81.70;;;;;;;5.80;60.35;101726.89;113488;1233;21937;-79
2023/03/01 08:22:12;;;;;;;105.50;79.10;;;;;;;6.02;59.03;101725.94;113396;1232;21968;-79
2023/03/01 08:24:41;;;;;;;90.90;73.80;;;;;;;6.24;58.43;101726.69;113567;1233;23684;-80
2023/03/01 08:27:09;;;;;;;89.40;70.90;;;;;;;6.52;57.99;101726.75;113488;1229;23797;-80
2023/03/01 08:29:37;;;;;;;88.10;68.10;;;;;;;6.84;57.34;101722.94;113690;1233;21974;-79
2023/03/01 08:32:05;;;;;;;83.80;68.00;;;;;;;7.19;56.65;101720.83;112787;1239;23006;-79
2023/03/01 08:34:35;;;;;;;81.10;64.30;;;;;;;7.49;55.49;101718.84;112308;1242;22953;-77
2023/03/01 08:37:03;;;;;;;82.20;64.30;;;;;;;7.78;54.38;101717.88;112213;1242;21957;-78
2023/03/01 08:39:31;;;;;;;73.40;60.60;;;;;;;7.93;52.83;101716.77;112234;1242;22338;-79
2023/03/01 08:41:59;;;;;;;72.40;58.70;;;;;;;8.00;51.83;101715.52;112327;1242;22032;-79
2023/03/01 08:44:27;;;;;;;70.00;57.90;;;;;;;8.21;52.06;101717.98;111994;1242;21958;-79
2023/03/01 08:46:55;;;;;;;67.00;56.30;;;;;;;8.35;50.67;101716.35;112271;1242;21961;-79
2023/03/01 08:49:24;;;;;;;70.60;56.40;;;;;;;8.46;50.53;101712.98;112674;1238;21971;-79
2023/03/01 08:51:53;;;;;;;58.70;49.80;;;;;;;8.53;50.05;101714.69;112982;1233;22163;-79
2023/03/01 08:54:22;;;;;;;61.10;52.00;;;;;;;8.63;49.29;101711.83;113484;1233;22923;-78
2023/03/01 08:56:50;;;;;;;62.20;52.00;;;;;;;8.54;47.97;101707.91;113473;1232;21954;-74
2023/03/01 08:59:19;;;;;;;60.60;51.30;;;;;;;8.48;47.94;101703.27;113546;1232;23024;-75
2023/03/01 09:01:47;;;;;;;68.00;57.00;;;;;;;8.47;47.68;101695.99;113317;1233;23621;-77
2023/03/01 09:04:16;;;;;;;73.40;57.80;;;;;;;8.38;47.46;101691.17;113461;1233;21952;-78
2023/03/01 09:06:44;;;;;;;75.30;62.90;;;;;;;8.29;47.15;101691.40;113626;1233;23015;-77
2023/03/01 09:09:17;;;;;;;85.50;69.80;;;;;;;8.32;47.77;101687.75;113253;1233;21969;-77
2023/03/01 09:11:46;;;;;;;76.90;61.90;;;;;;;8.44;47.61;101680.73;113344;1233;22766;-77
2023/03/01 09:14:14;;;;;;;69.20;57.00;;;;;;;8.43;46.88;101681.43;113037;1238;22966;-77
2023/03/01 09:16:42;;;;;;;75.00;52.80;;;;;;;8.38;46.38;101688.23;112720;1238;21957;-76
2023/03/01 09:19:11;;;;;;;61.30;50.70;;;;;;;8.28;46.26;101692.45;112672;1238;23716;-78
2023/03/01 09:21:39;;;;;;;55.20;48.10;;;;;;;8.13;45.67;101689.77;112692;1238;21966;-76
2023/03/01 09:24:14;;;;;;;48.40;42.40;;;;;;;8.02;46.37;101689.84;112992;1238;21975;-78
2023/03/01 09:26:42;;;;;;;49.80;38.40;;;;;;;7.97;46.38;101686.58;112003;1245;21973;-78
2023/03/01 09:29:10;;;;;;;47.70;41.90;;;;;;;7.93;46.25;101688.15;112147;1245;23667;-75
2023/03/01 09:31:38;;;;;;;55.20;45.00;;;;;;;7.94;46.45;101690.40;112133;1241;21951;-76
2023/03/01 09:34:07;;;;;;;51.00;43.00;;;;;;;7.98;46.39;101685.52;112461;1241;21960;-76
2023/03/01 09:36:36;;;;;;;58.30;45.00;;;;;;;8.00;46.46;101681.36;112273;1240;22931;-78
2023/03/01 09:39:05;;;;;;;54.50;47.20;;;;;;;8.07;46.54;101677.33;112456;1241;23043;-77
2023/03/01 09:42:02;;;;;;;60.20;50.20;;;;;;;8.10;46.38;101676.10;112748;1240;23631;-76
2023/03/01 09:44:57;;;;;;;60.30;49.90;;;;;;;8.21;46.87;101676.03;113051;1233;21991;-78
2023/03/01 09:47:33;;;;;;;73.60;52.90;;;;;;;8.30;46.42;101671.80;113224;1233;21944;-74
2023/03/01 09:50:17;;;;;;;72.80;55.70;;;;;;;8.24;45.86;101669.92;113463;1232;23128;-73
2023/03/01 09:53:03;;;;;;;64.70;52.90;;;;;;;8.15;46.05;101671.38;113320;1232;21952;-77
2023/03/01 09:55:38;;;;;;;62.20;47.60;;;;;;;8.14;46.69;101669.99;113234;1233;23591;-75
2023/03/01 09:59:15;;;;;;;51.20;42.60;;;;;;;8.29;47.13;101667.81;113518;1232;22003;-76
2023/03/01 10:02:14;;;;;;;49.60;40.30;;;;;;;8.45;47.02;101669.80;112837;1241;22177;-76
2023/03/01 10:04:46;;;;;;;41.00;36.40;;;;;;;8.53;46.63;101669.23;112768;1241;21962;-75
2023/03/01 10:08:33;;;;;;;41.30;32.60;;;;;;;8.64;46.83;101670.00;112750;1241;21965;-75
2023/03/01 10:11:01;;;;;;;43.70;35.00;;;;;;;8.93;46.52;101668.17;111270;1253;21970;-75
2023/03/01 10:13:53;;;;;;;51.20;35.00;;;;;;;9.23;46.16;101661.77;111267;1247;23027;-75
2023/03/01 10:16:39;;;;;;;35.00;29.60;;;;;;;9.58;45.96;101657.02;111406;1253;21994;-75
2023/03/01 10:19:17;;;;;;;32.40;26.70;;;;;;;10.00;45.45;101658.70;111152;1253;22814;-76
2023/03/01 10:22:55;;;;;;;38.30;25.70;;;;;;;10.51;44.39;101656.17;111132;1253;22977;-76
2023/03/01 10:26:32;;;;;;;26.60;21.50;;;;;;;11.11;43.23;101659.30;111309;1253;22694;-76
2023/03/01 10:29:15;;;;;;;25.80;21.50;;;;;;;11.92;42.28;101657.63;111345;1253;22423;-76
2023/03/01 10:32:12;;;;;;;31.90;26.10;;;;;;;12.79;40.91;101655.33;111251;1247;21988;-75
2023/03/01 10:34:58;;;;;;;29.90;26.70;;;;;;;13.65;39.16;101657.52;111271;1254;22860;-77
2023/03/01 10:37:46;;;;;;;;;;;;;;;14.46;37.65;101656.58;111139;1254;22011;-76
2023/03/01 10:41:09;;;;;;;26.50;23.40;;;;;;;15.02;36.63;101653.64;111138;1254;23703;-75
2023/03/01 10:43:56;;;;;;;24.70;20.60;;;;;;;15.64;35.05;101649.45;111160;1250;24412;-75
2023/03/01 10:46:58;;;;;;;26.10;22.50;;;;;;;16.49;34.67;101652.36;111902;1248;23603;-76
2023/03/01 10:49:57;;;;;;;29.20;25.60;;;;;;;17.48;33.84;101653.66;112843;1241;21997;-75
2023/03/01 10:53:02;;;;;;;30.50;27.20;;;;;;;18.33;32.00;101645.80;112862;1233;22020;-76
2023/03/01 10:56:22;;;;;;;32.40;27.10;;;;;;;18.63;29.86;101644.66;113437;1233;21954;-75
2023/03/01 10:59:34;;;;;;;34.90;31.10;;;;;;;18.90;29.45;101639.41;113386;1233;21934;-74
2023/03/01 11:02:28;;;;;;;37.30;33.20;;;;;;;19.17;29.21;101640.84;113280;1233;23734;-76
2023/03/01 11:05:28;;;;;;;42.20;36.00;;;;;;;19.60;28.64;101636.51;113391;1232;22159;-76
2023/03/01 11:08:11;;;;;;;39.00;35.00;;;;;;;19.99;27.71;101629.76;112798;1239;21965;-76
2023/03/01 11:10:43;;;;;;;37.30;33.20;;;;;;;20.00;26.62;101624.09;112401;1239;23591;-75
2023/03/01 11:13:19;;;;;;;38.80;34.70;;;;;;;19.65;26.11;101622.64;112779;1241;23622;-76
2023/03/01 11:16:05;;;;;;;37.70;33.60;;;;;;;19.28;26.16;101620.80;112738;1239;22002;-76
2023/03/01 11:18:33;;;;;;;40.80;33.30;;;;;;;19.09;26.35;101620.77;112392;1239;21968;-75
2023/03/01 11:21:16;;;;;;;39.20;32.30;;;;;;;18.67;26.11;101621.85;112384;1239;21968;-75
2023/03/01 11:23:46;;;;;;;32.10;27.30;;;;;;;17.81;26.06;101622.39;112759;1239;21983;-76
2023/03/01 11:26:17;;;;;;;34.20;27.30;;;;;;;16.67;26.53;101619.27;113032;1233;21946;-76
2023/03/01 11:29:00;;;;;;;30.40;27.30;;;;;;;15.52;27.39;101616.33;113355;1233;23665;-74
2023/03/01 11:31:36;;;;;;;31.00;26.90;;;;;;;14.24;27.91;101615.58;112573;1238;22260;-74
2023/03/01 11:34:24;;;;;;;30.80;24.60;;;;;;;13.01;28.42;101609.67;112940;1239;23690;-75
2023/03/01 11:36:59;;;;;;;31.70;25.60;;;;;;;11.99;29.38;101608.45;112744;1239;22832;-75
2023/03/01 11:39:51;;;;;;;29.70;24.20;;;;;;;11.15;30.45;101604.34;112963;1238;23681;-76
2023/03/01 11:42:59;;;;;;;24.90;18.30;;;;;;;10.41;31.33;101606.04;113088;1238;23686;-76
2023/03/01 11:45:43;;;;;;;27.40;22.20;;;;;;;9.72;32.43;101600.16;112799;1239;22782;-76
2023/03/01 11:48:38;;;;;;;29.30;21.60;;;;;;;9.23;32.86;101597.69;112745;1232;21963;-75
2023/03/01 11:51:33;;;;;;;27.10;22.80;;;;;;;8.68;33.72;101597.77;113519;1233;21935;-75
2023/03/01 11:54:46;;;;;;;33.30;23.40;;;;;;;8.30;34.49;101595.84;113291;1234;21922;-75
2023/03/01 11:58:30;;;;;;;28.20;22.30;;;;;;;7.87;35.27;101589.06;112966;1233;21934;-76
2023/03/01 12:02:09;;;;;;;29.80;23.80;;;;;;;7.57;36.14;101585.41;113417;1232;21936;-75
2023/03/01 12:06:08;;;;;;;31.60;22.20;;;;;;;7.25;36.63;101577.80;113449;1233;23610;-75
2023/03/01 12:09:29;;;;;;;;;;;;;;;6.97;37.39;101577.73;112732;1241;21936;-76
2023/03/01 12:12:43;;;;;;;37.00;29.30;;;;;;;6.83;38.28;101574.83;112759;1241;21945;-75
2023/03/01 12:15:47;;;;;;;32.80;25.80;;;;;;;6.77;38.51;101575.19;112794;1241;21973;-78
2023/03/01 12:19:35;;;;;;;33.70;26.50;;;;;;;6.70;38.82;101567.08;112224;1241;23022;-76
2023/03/01 12:22:53;;;;;;;39.80;28.10;;;;;;;6.62;39.15;101561.05;112271;1243;21960;-76
2023/03/01 12:25:42;;;;;;;38.40;29.90;;;;;;;6.57;39.31;101555.69;111737;1246;23030;-77
2023/03/01 12:28:55;;;;;;;37.50;28.60;;;;;;;6.51;39.49;101554.48;111823;1246;23028;-77
2023/03/01 12:32:14;;;;;;;35.30;28.60;;;;;;;6.48;39.75;101549.14;111984;1246;23616;-76
2023/03/01 12:35:25;;;;;;;35.70;28.10;;;;;;;6.43;39.93;101542.92;111248;1254;21984;-75
2023/03/01 12:38:43;;;;;;;39.50;29.50;;;;;;;6.41;40.21;101538.77;111370;1253;22729;-79
2023/03/01 12:41:32;;;;;;;34.30;24.80;;;;;;;6.36;40.43;101540.34;111633;1253;23703;-79
2023/03/01 12:44:21;;;;;;;34.20;24.50;;;;;;;6.32;40.66;101537.56;111920;1247;21980;-75
2023/03/01 12:47:39;;;;;;;30.40;24.20;;;;;;;6.25;40.76;101530.84;111954;1247;21958;-77
2023/03/01 12:50:51;;;;;;;31.50;26.80;;;;;;;6.20;41.08;101520.47;112554;1242;21958;-77
2023/03/01 12:53:40;;;;;;;31.70;23.30;;;;;;;6.08;41.05;101516.16;111722;1247;22817;-74
2023/03/01 12:56:30;;;;;;;29.00;23.80;;;;;;;5.95;41.01;101513.04;111239;1252;22498;-77
2023/03/01 12:59:37;;;;;;;33.50;26.80;;;;;;;5.91;41.46;101507.85;111609;1252;21957;-76
2023/03/01 13:02:45;;;;;;;35.20;27.50;;;;;;;5.90;41.81;101505.77;111621;1252;21976;-78
2023/03/01 13:05:55;;;;;;;34.30;25.50;;;;;;;5.91;41.96;101504.91;111575;1252;21970;-78
2023/03/01 13:09:31;;;;;;;30.20;24.10;;;;;;;5.86;41.97;101502.67;111369;1252;21986;-80
2023/03/01 13:13:05;;;;;;;33.90;23.30;;;;;;;5.80;42.24;101505.77;111894;1246;23006;-77
2023/03/01 13:15:52;;;;;;;26.40;21.70;;;;;;;5.79;42.06;101498.86;111960;1248;22422;-77